Pagrindinis puslapis
METAR-TAF:

METAR-TAF

Oro uostai :

Kibdo, Kolumbija

platuma: 05-43N, ilguma: 076-37W, Aukštis: 53 m

Dabartinis oras

Ataskaita buvo paskelbta 19 minutes, ne 13:00 UTC
Vėjas 5 kt iš Šiaurės
Temperatūra 25°C
Drėgmė 94%
Slėgis 1013 hPa
Matomumas: 7000 m
Apsiniaukę ne aukštis 1000 ft

METAR: SKUI 281300Z 01005KT 7000 OVC010 25/24 A2990 RMK HZ

Laikas: 08:19 (13:19 UTC)


TAF: trūkstamas

Orai ataskaitas ir orų prognozės (METAR, TAF).

turimą stotys yra geltonos ir raudonos taškus žemėlapyje.

Perkelti pele per norėdami pamatyti stoties vardą.

Tada spustelėkite, norėdami matyti oro stebėjimo ir prognozės.

Norėdami pakeisti žemėlapį: spustelėkite ant žalios mygtukų su juodo kryžiaus žemyn,; žalią mygtuką su brūkšneliu, jei norite nutolinti; arba žalių rodyklių gretimoms žemėlapius.


METAR-TAF: